Details From RJSA - Aomori
To RJSK - Akita
Flight Number -
Tags Decoded
Created
Modified
Stats Distance 87 nm / 160 km
Max Altitude 10,500 ft / 3,200 m
Waypoints 6
Social Downloads 2
Likes 0
Share VATSIM

Download

Looking for another format? Having issues loading an existing format? Contact us
Advertisement - Login to hide

Notes

Decoded

Route

RJSA HWE78 ATE UWE05 UWE RJSK

ID Type Via Altitude Latitude Longitude Leg Dist Tot Dist Heading (true) Name
O RJSA APT - 0 ft / 0 m 40.72494˚ 140.67461˚ - 0 nm - -
HWE78 FIX - 10,500 ft / 3,200 m 40.56540˚ 140.19282˚ 23 nm 23 nm 247° / 246° -
ATE VOR - 4,093 ft / 1,248 m 39.71157˚ 140.06231˚ 51 nm 75 nm 187° / 187° AKITA VOR-DME
UWE05 FIX - 2,171 ft / 662 m 39.62725˚ 140.07981˚ 5 nm 80 nm 171° / 171° -
UWE VOR - 299 ft / 91 m 39.61713˚ 140.18694˚ 4 nm 85 nm 97° / 97° YUWA VOR-DME
O RJSK APT - 0 ft / 0 m 39.61694˚ 140.20421˚ 0 nm 86 nm 91° / 91° -

Altitude Profile

Advertisement - Login to hide

RJSA

Details ICAO RJSA (AOJ)
Name AOMORI
Region Japan
Timezone Asia/Tokyo (UTC+9.0)
Stats Elevation 664 ft / 202 m (AMSL)
Location 40.733272° 140.688594°
Runways 1
Magnetic Variation 8.960° W

METAR

Not found

TAF

TAF RJSA 271713Z 2718/2900 03005KT 9999 FEW030 TEMPO 2718/2722 3000 BR FEW001 BKN003 TEMPO 2809/2818 3000 BR FEW001 BKN003

Decode

Departure Runways

ID Width Length Bearing (true) Bearing (mag) Surface Threshold Offset Overrun Length
06 200 ft / 61 m 9,838 ft / 2,999 m 51.79° 60.75° Asphalt 0 ft / 0 m 200 ft / 61 m
24 200 ft / 61 m 9,838 ft / 2,999 m 231.81° 240.77° Asphalt 0 ft / 0 m 200 ft / 61 m

RJSK

Details ICAO RJSK (AXT)
Name AKITA
Region Japan
Timezone Asia/Tokyo (UTC+9.0)
Stats Elevation 313 ft / 95 m (AMSL)
Location 39.615645° 140.218665°
Runways 1
Magnetic Variation 8.688° W

METAR

Not found

TAF

TAF RJSK 271705Z 2718/2900 13004KT 9999 FEW030 BECMG 2803/2805 28007KT BECMG 2809/2812 13004KT

Decode

Destination Runways

ID Width Length Bearing (true) Bearing (mag) Surface Threshold Offset Overrun Length
10 200 ft / 61 m 8,184 ft / 2,495 m 96.62° 105.31° Asphalt 0 ft / 0 m 200 ft / 61 m
28 200 ft / 61 m 8,184 ft / 2,495 m 276.64° 285.33° Asphalt 0 ft / 0 m 200 ft / 61 m

Approach Navaids

Runway Type Ident Frequency Range Bearing (true) Bearing (mag) Slope Elevation
28 Localiser IUW 108.90 MHz 18 nm / 33 km 276.62° 285.31° - 286 ft / 87 m (AMSL)
28 Glidescope IUW 108.90 MHz 10 nm / 19 km 276.63° 285.32° 3.00° 300 ft / 91 m (AMSL)
28 DME IUW 108.90 MHz 18 nm / 33 km - - - 328 ft / 100 m (AMSL)

Popular Alternatives